powered by Meteolive.it
Dati meteo   Attuali  Passati Ogni 3 ore 7 Giorni 15 Giorni Avvisi Meteo Mappe meteo
Milano / Linate, Italy
Alba: 5:29 AM UTC1
Tramonto: 7:21 PM UTC1
 Lat: 45.42N, Lon: 9.27E
ICAO Usato: LIML
Condizioni Meteo Attuali Aggiornate: 21.08.2017 alle 19:20 LT
Quasi Sereno
Quasi Sereno
Sereno
Quasi Sereno
Temp: 28C
Umidita': 30%
Direz/Vel. Vento: variabile 04 KTS raffiche
Pressione: 1017 hPa
Punto di rugiada: 9C
Temperatura percepita: 27C
Visibilit: >10 KM (ottima)
Temperatura percepita in
presenza di vento (Wind Chill)
:
N/D
T. max (ultime 24 ore): 27C
T. min (ultime 24 ore): 18C


METAR ORIGINALE
LIML 211520Z VRB04KT CAVOK 28/09 Q1017 NOSIG